Mayfield, Idaho
Current Conditions -  °F | °C
As of 3:53 AM on Tuesday 21 Oct 2014 (Local Time) from KBOI Reporting Station
Light Rain Light Rain  
Wind Chill: 50°   Ceiling: 4500
Heat Index: 50°   Visibility: 8mi
Dew Point: 47°   Wind: 12mph
Humidity: 89%   Direction: 300°WNW
Pressure: 29.92"   Gusts: NA
Location:  43.5418°N, 116.118°W
Report Text: KBOI 210953Z 30010KT 8SM -RA FEW027 SCT033 OVC045 10/08 A2992 RMK AO2 RAB08 SLP116 P0006 T01000083
Loading
Personal Weather Stations






























Interactive Weather Map
Tropical Storm Tracking
New forecast layout! Learn more

10-Day Weather Forecast

Advertisements
Track Severe Weather on mobile